Main page
METAR-TAF:

METAR-TAF

Airports :

RAF Lakenheath

Lakenheath, England

latitude: 52-25N, longitude: 000-34E, elevation: 10 m

Current weather observation

The report was made 54 minutes ago, at 11:56 UTC
Wind 13 kt from the South with gusts up to 20 kt
Temperature 19°C
Humidity 32%
Pressure 1014 hPa
Visibility 10 km or more
Clear sky

METAR: EGUL 051156Z AUTO 17013G20KT 9999 CLR 19/02 A2993 RMK AO2 SLP139 T01850023 10185 20068 57018 $

Time: 13:50 (12:50 UTC)


TAF: missing

Weather observations and forecasts of more than 4000 airports (METAR and TAF reports).

The available stations are represented by yellow and red dots on the map.

Hover mouse over dot to see the name of the station.

Then click to see weather observations and forecasts.

To change the map : click on the green buttons with a black cross to zoom in, on the green button with a dash to zoom out, or on the green arrows for adjacent maps.


METAR-TAF: